Time;durP1;ratioP1;P1;durP2;ratioP2;P2;SDS_P1;SDS_P2;PMS_P1;PMS_P2;Temp;Humidity;BMP_temperature;BMP_pressure;BME280_temperature;BME280_humidity;BME280_pressure;Samples;Min_cycle;Max_cycle;Signal;HPM_P1;HPM_P2
2022/11/25 00:00:49;;;;;;;15.70;3.47;;;8.10;99.90;;;;;;6191327;23;20044;-87
2022/11/25 00:03:15;;;;;;;16.42;3.55;;;7.40;99.90;;;;;;6243636;23;20395;-88
2022/11/25 00:05:41;;;;;;;21.42;3.30;;;8.30;99.90;;;;;;6215920;23;20008;-89
2022/11/25 00:08:07;;;;;;;14.13;3.15;;;7.40;99.90;;;;;;6191650;23;20074;-88
2022/11/25 00:10:32;;;;;;;17.70;3.22;;;7.50;99.90;;;;;;6191015;23;20023;-87
2022/11/25 00:12:58;;;;;;;16.45;3.70;;;7.50;99.90;;;;;;6191053;23;20012;-87
2022/11/25 00:15:24;;;;;;;17.98;3.22;;;7.50;99.90;;;;;;6190559;23;20016;-87
2022/11/25 00:17:50;;;;;;;17.63;3.15;;;7.50;99.90;;;;;;6216499;23;20716;-87
2022/11/25 00:20:17;;;;;;;17.58;3.20;;;7.50;99.90;;;;;;6191316;23;20012;-87
2022/11/25 00:22:42;;;;;;;10.95;2.88;;;7.50;99.90;;;;;;6190249;23;20047;-87
2022/11/25 00:25:08;;;;;;;14.68;3.03;;;7.40;99.90;;;;;;6215017;23;20008;-88
2022/11/25 00:27:33;;;;;;;11.75;3.30;;;7.40;99.90;;;;;;6216950;23;20070;-88
2022/11/25 00:29:59;;;;;;;15.18;3.28;;;7.40;99.90;;;;;;6191379;23;20088;-86
2022/11/25 00:32:24;;;;;;;15.80;3.53;;;7.50;99.90;;;;;;6216433;23;20012;-88
2022/11/25 00:34:50;;;;;;;12.77;2.67;;;7.50;99.90;;;;;;6190775;23;20371;-88
2022/11/25 00:37:16;;;;;;;11.70;2.85;;;7.50;99.90;;;;;;6243725;23;20028;-88
2022/11/25 00:39:41;;;;;;;13.02;3.35;;;7.50;99.90;;;;;;6242447;23;20336;-88
2022/11/25 00:44:53;;;;;;;17.10;3.88;;;7.50;99.90;;;;;;6246019;23;20016;-88
2022/11/25 00:47:20;;;;;;;14.70;3.47;;;7.50;99.90;;;;;;6245251;23;20022;-87
2022/11/25 00:49:48;;;;;;;14.20;3.33;;;7.50;99.90;;;;;;6217800;23;20012;-88
2022/11/25 00:52:16;;;;;;;14.75;3.25;;;7.50;99.90;;;;;;6217785;23;20012;-88
2022/11/25 00:54:43;;;;;;;13.88;3.10;;;7.50;99.90;;;;;;6217815;23;20062;-87
2022/11/25 00:57:09;;;;;;;20.90;3.97;;;7.60;99.90;;;;;;6212921;23;20009;-87
2022/11/25 00:59:35;;;;;;;18.65;3.10;;;7.50;99.90;;;;;;6212829;23;20020;-89
2022/11/25 01:02:01;;;;;;;15.60;3.42;;;7.50;99.90;;;;;;6212438;23;20071;-89
2022/11/25 01:04:26;;;;;;;13.15;2.85;;;7.50;99.90;;;;;;6214140;23;20059;-89
2022/11/25 01:06:53;;;;;;;12.15;3.65;;;7.20;99.90;;;;;;6212601;23;20017;-88
2022/11/25 01:09:18;;;;;;;15.95;3.05;;;7.50;99.90;;;;;;6211580;23;20020;-89
2022/11/25 01:11:44;;;;;;;13.60;3.28;;;7.50;99.90;;;;;;6212415;23;20009;-88
2022/11/25 01:14:10;;;;;;;15.77;3.85;;;7.50;99.90;;;;;;6213552;23;20017;-89
2022/11/25 01:16:36;;;;;;;17.25;3.25;;;7.50;99.90;;;;;;6212697;23;20024;-88
2022/11/25 01:19:03;;;;;;;15.85;3.75;;;7.60;99.90;;;;;;6212190;23;20056;-89
2022/11/25 01:21:31;;;;;;;17.00;3.45;;;7.60;99.90;;;;;;6187762;23;20047;-88
2022/11/25 01:24:00;;;;;;;19.38;3.60;;;7.60;99.90;;;;;;6187371;23;20023;-88
2022/11/25 01:26:27;;;;;;;17.75;3.45;;;7.60;99.90;;;;;;6186662;23;20020;-88
2022/11/25 01:28:59;;;;;;;18.48;4.20;;;7.60;99.90;;;;;;6187607;23;20015;-88
2022/11/25 01:31:27;;;;;;;15.40;3.35;;;7.60;99.90;;;;;;6187072;23;20412;-87
2022/11/25 01:33:56;;;;;;;16.60;4.18;;;7.60;99.90;;;;;;6213223;23;20013;-88
2022/11/25 01:36:22;;;;;;;20.00;3.63;;;7.60;99.90;;;;;;6187838;23;20020;-88
2022/11/25 01:38:53;;;;;;;14.75;3.28;;;7.50;99.90;;;;;;6212708;23;20044;-88
2022/11/25 01:41:21;;;;;;;10.57;2.92;;;7.50;99.90;;;;;;6186213;23;20020;-88
2022/11/25 01:44:11;;;;;;;23.10;3.70;;;7.50;99.90;;;;;;6186558;23;20059;-88
2022/11/25 01:46:45;;;;;;;15.05;3.85;;;7.50;99.90;;;;;;6212046;23;20017;-88
2022/11/25 01:49:19;;;;;;;15.23;3.15;;;7.50;99.90;;;;;;6186636;23;20066;-88
2022/11/25 01:52:11;;;;;;;14.60;3.58;;;7.50;99.90;;;;;;6212750;23;20450;-88
2022/11/25 01:54:49;;;;;;;16.80;3.10;;;7.60;99.90;;;;;;6204340;23;20313;-88
2022/11/25 01:57:23;;;;;;;12.07;3.05;;;7.50;99.90;;;;;;6234784;23;20119;-87
2022/11/25 01:59:51;;;;;;;13.23;3.78;;;7.60;99.90;;;;;;6214235;23;20023;-88
2022/11/25 02:02:19;;;;;;;13.95;3.10;;;7.60;99.90;;;;;;6186606;23;20436;-87
2022/11/25 02:04:46;;;;;;;14.90;3.25;;;7.60;99.90;;;;;;6212036;23;20016;-88
2022/11/25 02:07:33;;;;;;;9.73;2.72;;;7.60;99.90;;;;;;6214320;23;20012;-88
2022/11/25 02:10:00;;;;;;;13.45;3.58;;;7.60;99.90;;;;;;6213845;23;20391;-88
2022/11/25 02:12:27;;;;;;;14.60;3.80;;;7.60;99.90;;;;;;6211926;23;20182;-88
2022/11/25 02:14:55;;;;;;;18.67;3.30;;;7.70;99.90;;;;;;6212132;23;20009;-88
2022/11/25 02:17:21;;;;;;;12.90;3.00;;;7.70;99.90;;;;;;6186633;23;20020;-88
2022/11/25 02:20:02;;;;;;;12.95;4.05;;;7.70;99.90;;;;;;6186023;23;20043;-88
2022/11/25 02:22:59;;;;;;;13.27;3.33;;;7.70;99.90;;;;;;6186964;23;20447;-87
2022/11/25 02:25:31;;;;;;;15.48;3.85;;;7.70;99.90;;;;;;6186963;23;20027;-87
2022/11/25 02:28:07;;;;;;;17.13;3.60;;;7.70;99.90;;;;;;6211519;23;20020;-88
2022/11/25 02:30:34;;;;;;;12.43;3.40;;;7.70;99.90;;;;;;6213214;23;20012;-88
2022/11/25 02:33:00;;;;;;;22.10;3.92;;;7.70;99.90;;;;;;6213616;23;20044;-87
2022/11/25 02:35:40;;;;;;;14.50;3.45;;;7.70;99.90;;;;;;6186133;23;20019;-87
2022/11/25 02:38:10;;;;;;;15.43;3.90;;;7.70;99.90;;;;;;6213464;23;20104;-87
2022/11/25 02:40:51;;;;;;;17.77;3.90;;;7.70;99.90;;;;;;6211582;23;20038;-87
2022/11/25 02:43:17;;;;;;;18.42;3.55;;;7.70;99.90;;;;;;6212468;23;20087;-87
2022/11/25 02:45:50;;;;;;;17.52;3.50;;;7.70;99.90;;;;;;6211722;23;20563;-87
2022/11/25 02:48:16;;;;;;;13.32;3.63;;;7.90;99.90;;;;;;6211336;23;20032;-87
2022/11/25 02:50:41;;;;;;;23.98;4.47;;;7.70;99.90;;;;;;6210767;23;20514;-87
2022/11/25 02:53:07;;;;;;;15.52;3.53;;;7.70;99.90;;;;;;6186386;23;20479;-87
2022/11/25 02:55:33;;;;;;;18.52;4.13;;;7.70;99.90;;;;;;6211355;23;20505;-87
2022/11/25 02:57:59;;;;;;;16.15;4.20;;;7.70;99.90;;;;;;6211121;23;20016;-86
2022/11/25 03:00:25;;;;;;;19.10;4.28;;;7.70;99.90;;;;;;6210316;23;20070;-86
2022/11/25 03:02:52;;;;;;;16.88;4.68;;;7.70;99.90;;;;;;6212750;23;20115;-87
2022/11/25 03:05:18;;;;;;;18.58;4.97;;;7.70;99.90;;;;;;6211097;23;20091;-87
2022/11/25 03:07:43;;;;;;;15.13;4.20;;;7.70;99.90;;;;;;6212183;23;20039;-87
2022/11/25 03:10:09;;;;;;;20.00;4.38;;;7.70;99.90;;;;;;6210667;23;20013;-88
2022/11/25 03:12:35;;;;;;;20.85;4.32;;;7.70;99.90;;;;;;6212591;23;20370;-87
2022/11/25 03:15:00;;;;;;;16.45;4.50;;;7.70;99.90;;;;;;6210585;23;20042;-87
2022/11/25 03:17:26;;;;;;;20.75;4.65;;;7.70;99.90;;;;;;6211300;23;20016;-87
2022/11/25 03:19:52;;;;;;;17.77;4.47;;;7.80;99.90;;;;;;6210482;23;20070;-87
2022/11/25 03:22:17;;;;;;;18.00;4.30;;;7.80;99.90;;;;;;6210776;23;20342;-87
2022/11/25 03:24:43;;;;;;;22.17;5.30;;;7.80;99.90;;;;;;6185123;23;20143;-87
2022/11/25 03:27:09;;;;;;;21.45;4.68;;;7.80;99.90;;;;;;6185546;23;20009;-87
2022/11/25 03:29:34;;;;;;;20.52;4.38;;;7.80;99.90;;;;;;6184338;23;20063;-87
2022/11/25 03:32:00;;;;;;;25.90;5.45;;;7.80;99.90;;;;;;6185074;23;20016;-87
2022/11/25 03:34:26;;;;;;;17.65;4.93;;;7.80;99.90;;;;;;6213162;23;20012;-87
2022/11/25 03:36:51;;;;;;;23.58;5.90;;;7.80;99.90;;;;;;6212396;23;20017;-87
2022/11/25 03:39:17;;;;;;;16.88;4.85;;;7.80;99.90;;;;;;6210509;23;20017;-87
2022/11/25 03:41:42;;;;;;;21.17;5.65;;;7.80;99.90;;;;;;6185760;23;20019;-87
2022/11/25 03:44:08;;;;;;;29.08;5.70;;;7.80;99.90;;;;;;6210386;23;20058;-87
2022/11/25 03:46:34;;;;;;;18.70;5.40;;;8.00;99.90;;;;;;6211478;23;20010;-87
2022/11/25 03:48:59;;;;;;;19.52;5.47;;;7.90;99.90;;;;;;6211304;23;20016;-87
2022/11/25 03:51:25;;;;;;;20.73;5.20;;;7.90;99.90;;;;;;6213245;23;20012;-86
2022/11/25 03:53:50;;;;;;;26.95;6.35;;;7.80;99.90;;;;;;6211369;23;20008;-87
2022/11/25 03:56:16;;;;;;;17.73;5.10;;;7.80;99.90;;;;;;6210399;23;20016;-87
2022/11/25 03:58:42;;;;;;;20.33;5.32;;;7.80;99.90;;;;;;6212142;23;20017;-87
2022/11/25 04:01:08;;;;;;;22.00;5.28;;;7.90;99.90;;;;;;6211263;23;20019;-86
2022/11/25 04:03:33;;;;;;;23.70;6.15;;;7.80;99.90;;;;;;6185997;23;20687;-87
2022/11/25 04:05:59;;;;;;;17.45;5.63;;;7.90;99.90;;;;;;6210361;23;20762;-87
2022/11/25 04:08:26;;;;;;;21.00;6.03;;;7.90;99.90;;;;;;6212407;23;20012;-86
2022/11/25 04:10:52;;;;;;;24.10;6.72;;;8.40;99.90;;;;;;6185420;23;20004;-87
2022/11/25 04:13:17;;;;;;;22.67;6.25;;;7.90;99.90;;;;;;6212067;23;20044;-86
2022/11/25 04:15:47;;;;;;;21.65;6.82;;;7.90;99.90;;;;;;6210858;23;20009;-87
2022/11/25 04:18:15;;;;;;;24.40;7.15;;;7.90;99.90;;;;;;6210908;23;20017;-86
2022/11/25 04:20:40;;;;;;;24.83;6.30;;;7.80;99.90;;;;;;6212575;23;20024;-87
2022/11/25 04:23:06;;;;;;;25.85;7.05;;;7.90;99.90;;;;;;6211614;23;20023;-87
2022/11/25 04:25:33;;;;;;;24.38;7.13;;;7.90;99.90;;;;;;6210950;23;20507;-86
2022/11/25 04:27:58;;;;;;;22.20;6.45;;;7.90;99.90;;;;;;6209795;23;20109;-87
2022/11/25 04:30:24;;;;;;;20.83;6.47;;;7.90;99.90;;;;;;6209840;23;20056;-87
2022/11/25 04:32:50;;;;;;;25.73;6.47;;;7.90;99.90;;;;;;6212606;23;20013;-87
2022/11/25 04:35:16;;;;;;;21.75;6.45;;;7.90;99.90;;;;;;6212132;23;20337;-86
2022/11/25 04:37:41;;;;;;;21.25;6.80;;;7.90;99.90;;;;;;6212244;23;20020;-86
2022/11/25 04:40:08;;;;;;;18.90;6.80;;;7.90;99.90;;;;;;6210616;23;20092;-86
2022/11/25 04:42:35;;;;;;;27.15;7.30;;;7.90;99.90;;;;;;6209797;23;20027;-87
2022/11/25 04:45:07;;;;;;;26.27;6.82;;;7.90;99.90;;;;;;6210718;23;20019;-86
2022/11/25 04:47:33;;;;;;;26.52;7.68;;;7.90;99.90;;;;;;6211777;23;20017;-87
2022/11/25 04:49:59;;;;;;;20.52;6.45;;;7.90;99.90;;;;;;6212412;23;20326;-86
2022/11/25 04:52:25;;;;;;;24.63;7.20;;;7.90;99.90;;;;;;6210728;23;20127;-87
2022/11/25 04:54:51;;;;;;;22.55;7.38;;;8.00;99.90;;;;;;6210675;23;20019;-87
2022/11/25 04:57:16;;;;;;;19.67;6.93;;;8.00;99.90;;;;;;6238979;23;20083;-87
2022/11/25 04:59:42;;;;;;;26.63;8.10;;;7.90;99.90;;;;;;6241459;23;20071;-87
2022/11/25 05:02:17;;;;;;;18.58;7.20;;;8.00;99.90;;;;;;6243452;23;20059;-87
2022/11/25 05:04:45;;;;;;;22.58;7.88;;;8.00;99.90;;;;;;6215177;23;20023;-87
2022/11/25 05:07:11;;;;;;;19.80;7.97;;;7.90;99.90;;;;;;6215461;23;20020;-85
2022/11/25 05:09:37;;;;;;;22.55;7.80;;;7.90;99.90;;;;;;6215129;23;20016;-85
2022/11/25 05:12:05;;;;;;;22.42;7.60;;;8.00;99.90;;;;;;6241563;23;20016;-85
2022/11/25 05:14:30;;;;;;;26.40;7.80;;;8.00;99.90;;;;;;6190233;23;20599;-85
2022/11/25 05:16:56;;;;;;;24.55;7.97;;;7.90;99.90;;;;;;6215100;23;20016;-87
2022/11/25 05:19:22;;;;;;;26.15;9.65;;;7.90;99.90;;;;;;6214887;23;20391;-87
2022/11/25 05:21:47;;;;;;;27.02;8.73;;;7.90;99.90;;;;;;6242762;23;20016;-87
2022/11/25 05:24:13;;;;;;;22.35;9.00;;;7.90;99.90;;;;;;6215298;23;20008;-87
2022/11/25 05:26:38;;;;;;;26.15;9.25;;;7.90;99.90;;;;;;6214976;23;20079;-85
2022/11/25 05:29:04;;;;;;;22.75;8.02;;;7.90;99.90;;;;;;6216950;23;20019;-85
2022/11/25 05:31:30;;;;;;;29.40;9.40;;;7.90;99.90;;;;;;6216705;23;20086;-85
2022/11/25 05:33:55;;;;;;;25.83;9.27;;;7.90;99.90;;;;;;6218090;23;20016;-84
2022/11/25 05:36:21;;;;;;;27.27;8.90;;;7.90;99.90;;;;;;6218069;23;20020;-84
2022/11/25 05:38:46;;;;;;;22.02;9.40;;;7.90;99.90;;;;;;6244855;23;20024;-85
2022/11/25 05:41:12;;;;;;;27.52;9.25;;;7.90;99.90;;;;;;6216406;23;20047;-85
2022/11/25 05:43:38;;;;;;;26.08;8.98;;;8.10;99.90;;;;;;6218021;23;20043;-85
2022/11/25 05:46:05;;;;;;;24.77;8.70;;;7.90;99.90;;;;;;6243321;23;20030;-85
2022/11/25 05:48:31;;;;;;;23.67;9.65;;;7.90;99.90;;;;;;6191496;23;20012;-85
2022/11/25 05:50:59;;;;;;;19.55;8.52;;;8.20;99.90;;;;;;6217730;23;20446;-85
2022/11/25 05:53:25;;;;;;;20.88;9.13;;;7.90;99.90;;;;;;6214815;23;20023;-85
2022/11/25 05:55:59;;;;;;;21.83;8.18;;;7.90;99.90;;;;;;6190526;23;20016;-85
2022/11/25 05:58:27;;;;;;;19.08;9.02;;;8.00;99.90;;;;;;6243640;23;20042;-84
2022/11/25 06:00:52;;;;;;;23.25;9.32;;;7.90;99.90;;;;;;6246656;23;20066;-87
2022/11/25 06:03:18;;;;;;;23.02;9.60;;;7.90;99.90;;;;;;6250071;23;20444;-85
2022/11/25 06:05:44;;;;;;;27.27;10.38;;;7.90;99.90;;;;;;6198766;23;20008;-85
2022/11/25 06:08:10;;;;;;;22.70;9.68;;;7.90;99.90;;;;;;6199592;23;20016;-85
2022/11/25 06:10:40;;;;;;;22.75;9.32;;;8.00;99.90;;;;;;6195609;23;20460;-87
2022/11/25 06:13:09;;;;;;;23.98;9.30;;;7.90;99.90;;;;;;6222027;23;20076;-86
2022/11/25 06:15:40;;;;;;;28.25;9.65;;;8.00;99.90;;;;;;6201530;23;20016;-86
2022/11/25 06:18:07;;;;;;;27.88;10.90;;;7.90;99.90;;;;;;6199565;23;20019;-87
2022/11/25 06:20:33;;;;;;;24.67;10.13;;;7.90;99.90;;;;;;6224365;23;20043;-86
2022/11/25 06:22:58;;;;;;;29.48;10.02;;;8.00;99.90;;;;;;6245038;23;20376;-84
2022/11/25 06:25:24;;;;;;;23.13;9.70;;;8.00;99.90;;;;;;6217045;23;20554;-84
2022/11/25 06:27:50;;;;;;;19.80;8.82;;;8.00;99.90;;;;;;6243254;23;20020;-85
2022/11/25 06:30:16;;;;;;;22.48;9.63;;;8.00;99.90;;;;;;6243686;23;20013;-86
2022/11/25 06:32:41;;;;;;;24.98;8.65;;;8.00;99.90;;;;;;6218257;23;20062;-85
2022/11/25 06:35:08;;;;;;;28.85;10.38;;;8.00;99.90;;;;;;6220994;23;20016;-86
2022/11/25 06:37:34;;;;;;;21.08;9.18;;;8.00;99.90;;;;;;6246571;23;20055;-83
2022/11/25 06:40:00;;;;;;;23.77;8.95;;;8.00;99.90;;;;;;6220628;23;20216;-85
2022/11/25 06:42:26;;;;;;;21.73;8.52;;;8.00;99.90;;;;;;6220395;23;20016;-84
2022/11/25 06:44:52;;;;;;;26.42;7.90;;;8.00;99.90;;;;;;6249859;23;20012;-87
2022/11/25 06:47:17;;;;;;;29.33;12.05;;;8.00;99.90;;;;;;6221501;23;20012;-86
2022/11/25 06:49:43;;;;;;;20.80;8.70;;;8.80;99.90;;;;;;6219823;23;20067;-83
2022/11/25 06:52:09;;;;;;;21.60;8.82;;;8.10;99.90;;;;;;6216667;23;20004;-83
2022/11/25 06:54:39;;;;;;;19.55;8.73;;;8.10;99.90;;;;;;6193072;23;20012;-84
2022/11/25 06:57:09;;;;;;;24.65;8.30;;;8.00;99.90;;;;;;6243870;23;20095;-83
2022/11/25 06:59:35;;;;;;;27.08;8.63;;;8.00;99.90;;;;;;6191234;23;20027;-83
2022/11/25 07:02:01;;;;;;;18.05;8.15;;;8.10;99.90;;;;;;6216995;23;20012;-83
2022/11/25 07:04:27;;;;;;;20.10;7.10;;;8.00;99.90;;;;;;6216976;23;20067;-84
2022/11/25 07:06:53;;;;;;;14.50;6.40;;;8.10;99.90;;;;;;6190239;23;20012;-82
2022/11/25 07:09:19;;;;;;;20.08;7.03;;;8.10;99.90;;;;;;6213769;23;20015;-80
2022/11/25 07:11:45;;;;;;;17.50;7.15;;;8.10;99.90;;;;;;6242271;23;20047;-81
2022/11/25 07:14:13;;;;;;;21.08;6.35;;;8.10;99.90;;;;;;6242798;23;20040;-84
2022/11/25 07:16:40;;;;;;;16.23;6.22;;;8.00;99.90;;;;;;6215606;23;20085;-84
2022/11/25 07:19:06;;;;;;;19.10;6.65;;;8.00;99.90;;;;;;6242883;23;20088;-85
2022/11/25 07:21:33;;;;;;;14.82;5.47;;;8.40;99.90;;;;;;6218301;23;20441;-84
2022/11/25 07:24:01;;;;;;;17.90;5.78;;;7.90;99.90;;;;;;6190883;23;20440;-84
2022/11/25 07:26:30;;;;;;;21.08;5.97;;;7.90;99.90;;;;;;6242763;23;20034;-83
2022/11/25 07:29:02;;;;;;;16.83;5.97;;;7.90;99.90;;;;;;6244012;23;20020;-84
2022/11/25 07:31:30;;;;;;;17.40;5.70;;;7.90;99.90;;;;;;6216707;23;20016;-85
2022/11/25 07:34:12;;;;;;;18.52;5.25;;;8.40;99.90;;;;;;6245226;23;20122;-84
2022/11/25 07:36:39;;;;;;;19.00;4.95;;;7.90;99.90;;;;;;6193949;23;20024;-85
2022/11/25 07:39:11;;;;;;;20.83;5.47;;;7.90;99.90;;;;;;6246362;23;20367;-84
2022/11/25 07:41:37;;;;;;;16.48;5.22;;;7.90;99.90;;;;;;6196787;23;20080;-85
2022/11/25 07:44:04;;;;;;;15.25;4.65;;;8.00;99.90;;;;;;6247191;23;20012;-85
2022/11/25 07:46:33;;;;;;;14.68;4.95;;;8.00;99.90;;;;;;6215285;23;20012;-84
2022/11/25 07:49:08;;;;;;;14.70;3.88;;;7.90;99.90;;;;;;6214388;23;20028;-85
2022/11/25 07:51:37;;;;;;;16.80;4.38;;;7.90;99.90;;;;;;6215859;23;20016;-85
2022/11/25 07:54:06;;;;;;;15.27;4.72;;;8.50;99.90;;;;;;6217512;23;20023;-84
2022/11/25 07:56:34;;;;;;;11.95;4.10;;;7.90;99.90;;;;;;6192939;23;20047;-85
2022/11/25 07:59:00;;;;;;;13.35;4.10;;;7.90;99.90;;;;;;6245605;23;20020;-85
2022/11/25 08:01:26;;;;;;;10.68;3.72;;;7.90;99.90;;;;;;6218153;23;20069;-85
2022/11/25 08:03:52;;;;;;;16.73;4.43;;;7.90;99.90;;;;;;6219631;23;20091;-85
2022/11/25 08:06:21;;;;;;;13.63;4.38;;;8.50;99.90;;;;;;6246420;23;20020;-85
2022/11/25 08:08:48;;;;;;;14.63;4.05;;;7.90;99.90;;;;;;6219851;23;20541;-85
2022/11/25 08:11:17;;;;;;;12.40;3.85;;;7.90;99.90;;;;;;6247780;23;20019;-84
2022/11/25 08:13:43;;;;;;;15.27;3.97;;;7.90;99.90;;;;;;6248067;23;20047;-84
2022/11/25 08:16:12;;;;;;;13.77;3.65;;;7.90;99.90;;;;;;6194511;23;20016;-85
2022/11/25 08:18:39;;;;;;;15.00;4.60;;;7.90;99.90;;;;;;6219229;23;20087;-85
2022/11/25 08:21:08;;;;;;;16.23;3.53;;;7.90;99.90;;;;;;6220346;23;20020;-84
2022/11/25 08:23:35;;;;;;;14.82;3.85;;;7.90;99.90;;;;;;6219911;23;20024;-84
2022/11/25 08:26:22;;;;;;;12.38;3.30;;;7.80;99.90;;;;;;6245172;23;20026;-85
2022/11/25 08:28:49;;;;;;;13.13;4.15;;;7.80;99.90;;;;;;6194613;23;20039;-85
2022/11/25 08:31:21;;;;;;;13.25;3.78;;;7.80;99.90;;;;;;6219814;23;20070;-85
2022/11/25 08:33:47;;;;;;;16.30;3.97;;;7.80;99.90;;;;;;6218075;23;20071;-86
2022/11/25 08:36:14;;;;;;;15.45;4.05;;;7.80;99.90;;;;;;6218819;23;20012;-85
2022/11/25 08:38:41;;;;;;;12.70;3.97;;;7.80;99.90;;;;;;6217975;23;20602;-85
2022/11/25 08:41:15;;;;;;;13.30;4.50;;;7.80;99.90;;;;;;6245059;23;20102;-86
2022/11/25 08:43:40;;;;;;;11.40;3.70;;;7.80;99.90;;;;;;6218516;23;20090;-84
2022/11/25 08:46:11;;;;;;;16.98;4.03;;;7.80;99.90;;;;;;6217451;23;20442;-85
2022/11/25 08:48:37;;;;;;;10.27;3.60;;;7.80;99.90;;;;;;6244074;23;20020;-85
2022/11/25 08:51:09;;;;;;;12.13;4.38;;;8.10;99.90;;;;;;6217750;23;20332;-85
2022/11/25 08:53:35;;;;;;;15.88;4.00;;;7.80;99.90;;;;;;6218189;23;20040;-84
2022/11/25 08:56:01;;;;;;;12.00;4.47;;;7.80;99.90;;;;;;6216902;23;20024;-84
2022/11/25 08:58:27;;;;;;;13.45;5.28;;;7.90;99.90;;;;;;6218453;23;20016;-84
2022/11/25 09:00:52;;;;;;;16.05;4.68;;;7.90;99.90;;;;;;6218406;23;20075;-85
2022/11/25 09:03:18;;;;;;;13.13;4.82;;;8.00;99.90;;;;;;6218790;23;20035;-85
2022/11/25 09:05:44;;;;;;;13.85;4.88;;;7.90;99.90;;;;;;6246557;23;20486;-84
2022/11/25 09:08:10;;;;;;;13.35;4.43;;;8.00;99.90;;;;;;6220141;23;20087;-85
2022/11/25 09:10:38;;;;;;;15.30;4.65;;;8.00;99.90;;;;;;6246954;23;20062;-84
2022/11/25 09:13:04;;;;;;;10.95;4.03;;;8.00;99.90;;;;;;6219772;23;20088;-85
2022/11/25 09:15:30;;;;;;;13.82;5.10;;;8.10;99.90;;;;;;6247016;23;20707;-83
2022/11/25 09:18:00;;;;;;;13.93;4.57;;;8.10;99.90;;;;;;6245908;23;20348;-84
2022/11/25 09:20:27;;;;;;;13.13;4.13;;;8.10;99.90;;;;;;6246858;23;20066;-85
2022/11/25 09:22:53;;;;;;;13.20;4.75;;;8.20;99.90;;;;;;6246679;23;20016;-84
2022/11/25 09:25:20;;;;;;;12.85;5.20;;;8.10;99.90;;;;;;6245687;23;20392;-85
2022/11/25 09:27:46;;;;;;;11.90;4.13;;;8.10;99.90;;;;;;6219690;23;20023;-85
2022/11/25 09:30:12;;;;;;;9.75;4.07;;;8.20;99.90;;;;;;6219554;23;20012;-85
2022/11/25 09:32:37;;;;;;;17.85;6.07;;;8.20;99.90;;;;;;6245839;23;20385;-85
2022/11/25 09:35:03;;;;;;;11.88;5.25;;;8.20;99.90;;;;;;6218878;23;20054;-85
2022/11/25 09:37:29;;;;;;;18.35;4.60;;;8.20;99.90;;;;;;6219138;23;20015;-84
2022/11/25 09:39:55;;;;;;;13.05;4.40;;;8.30;99.90;;;;;;6219616;23;20043;-84
2022/11/25 09:49:21;;;;;;;14.40;4.90;;;8.30;99.90;;;;;;6128410;23;20033;-85
2022/11/25 09:51:59;;;;;;;11.57;3.73;;;8.40;99.90;;;;;;6153329;23;20026;-84
2022/11/25 09:54:33;;;;;;;15.95;4.38;;;8.50;99.90;;;;;;6128537;23;20017;-85
2022/11/25 09:57:23;;;;;;;14.35;4.30;;;8.50;99.90;;;;;;6152838;23;20013;-85
2022/11/25 10:00:05;;;;;;;8.70;3.90;;;8.60;99.90;;;;;;6153037;23;20069;-84
2022/11/25 10:03:09;;;;;;;12.88;4.30;;;8.60;99.90;;;;;;6151869;23;20020;-84
2022/11/25 10:06:00;;;;;;;12.75;4.50;;;8.70;99.90;;;;;;6036506;23;20165;-84
2022/11/25 10:08:32;;;;;;;12.48;4.22;;;8.70;99.90;;;;;;6036155;23;20019;-85
2022/11/25 10:11:06;;;;;;;11.43;4.20;;;8.80;99.90;;;;;;6012762;23;20026;-84
2022/11/25 10:13:52;;;;;;;13.82;4.50;;;8.80;99.90;;;;;;6036057;23;20015;-85
2022/11/25 10:16:49;;;;;;;16.25;4.70;;;8.90;99.90;;;;;;6035409;23;20016;-84
2022/11/25 10:19:30;;;;;;;12.80;3.72;;;9.00;99.90;;;;;;6050792;23;20868;-84
2022/11/25 10:21:56;;;;;;;13.18;3.70;;;9.00;99.90;;;;;;6093534;23;20030;-84
2022/11/25 10:24:22;;;;;;;11.30;3.95;;;9.30;99.90;;;;;;6093760;23;20042;-83
2022/11/25 10:26:57;;;;;;;14.82;3.58;;;9.10;99.90;;;;;;6069085;23;20514;-85
2022/11/25 10:29:26;;;;;;;8.65;3.17;;;9.20;99.90;;;;;;6045847;23;20046;-83
2022/11/25 10:32:00;;;;;;;13.55;4.03;;;9.20;99.90;;;;;;6093734;23;20066;-84
2022/11/25 10:34:40;;;;;;;10.15;3.92;;;9.30;99.90;;;;;;6093533;23;20018;-83
2022/11/25 10:37:16;;;;;;;10.95;3.72;;;9.40;99.90;;;;;;6094050;23;20126;-83
2022/11/25 10:39:42;;;;;;;17.67;4.35;;;9.40;99.90;;;;;;6093604;23;20049;-84
2022/11/25 10:42:19;;;;;;;11.63;3.65;;;9.50;99.90;;;;;;6165300;23;20016;-85
2022/11/25 10:44:45;;;;;;;11.57;3.75;;;9.50;99.90;;;;;;6244893;23;20012;-84
2022/11/25 10:47:16;;;;;;;11.05;3.53;;;9.60;99.90;;;;;;6218835;23;20019;-84
2022/11/25 10:49:42;;;;;;;13.45;3.45;;;9.70;99.90;;;;;;6219722;23;20023;-84
2022/11/25 10:52:21;;;;;;;12.35;3.35;;;9.70;99.90;;;;;;6193394;23;20012;-84
2022/11/25 10:55:13;;;;;;;15.90;4.10;;;9.70;99.90;;;;;;6218686;23;20043;-87
2022/11/25 10:57:39;;;;;;;12.80;3.38;;;9.70;99.90;;;;;;6218186;23;20031;-84
2022/11/25 11:00:23;;;;;;;11.10;3.13;;;9.80;99.90;;;;;;6245444;23;20078;-84
2022/11/25 11:02:48;;;;;;;9.73;3.35;;;9.90;99.90;;;;;;6219119;23;20532;-84
2022/11/25 11:05:21;;;;;;;9.50;2.70;;;10.00;99.90;;;;;;6218642;23;20012;-84
2022/11/25 11:07:47;;;;;;;13.95;3.08;;;10.30;99.90;;;;;;6245663;23;20020;-84
2022/11/25 11:10:24;;;;;;;9.65;3.20;;;10.20;99.90;;;;;;6246261;23;20027;-84
2022/11/25 11:13:00;;;;;;;13.38;3.28;;;10.30;99.90;;;;;;6244815;23;20012;-84
2022/11/25 11:15:31;;;;;;;10.35;2.90;;;10.40;99.90;;;;;;6193088;23;20020;-84
2022/11/25 11:18:13;;;;;;;10.70;2.88;;;10.50;99.90;;;;;;6244611;23;20097;-85
2022/11/25 11:20:45;;;;;;;11.80;2.28;;;10.50;99.90;;;;;;6193079;23;20022;-83
2022/11/25 11:23:13;;;;;;;11.55;2.60;;;10.50;99.90;;;;;;6245290;23;20087;-83
2022/11/25 11:26:20;;;;;;;8.20;2.83;;;10.60;99.90;;;;;;6244303;23;20043;-84
2022/11/25 11:28:46;;;;;;;12.02;2.80;;;10.60;99.90;;;;;;6228149;23;20397;-84
2022/11/25 11:31:24;;;;;;;8.20;2.10;;;10.60;99.90;;;;;;6244853;23;20017;-83
2022/11/25 11:33:49;;;;;;;12.57;3.05;;;10.60;99.90;;;;;;6217403;23;20016;-84
2022/11/25 11:36:50;;;;;;;10.27;2.53;;;10.50;99.90;;;;;;6244938;23;20050;-83
2022/11/25 11:39:59;;;;;;;9.85;1.98;;;10.60;99.90;;;;;;6121669;23;20435;-83
2022/11/25 11:43:01;;;;;;;21.80;3.10;;;10.70;99.90;;;;;;6096536;23;20026;-84
2022/11/25 11:45:29;;;;;;;9.77;2.00;;;10.70;99.90;;;;;;6121924;23;20077;-85
2022/11/25 11:48:18;;;;;;;9.80;2.25;;;10.70;99.90;;;;;;6119887;23;20028;-83
2022/11/25 11:50:51;;;;;;;9.07;2.58;;;10.80;99.90;;;;;;6117805;23;20026;-83
2022/11/25 11:53:42;;;;;;;9.52;2.13;;;10.80;99.90;;;;;;6118570;23;20029;-83
2022/11/25 11:56:36;;;;;;;9.85;2.22;;;10.80;99.90;;;;;;6118047;23;20137;-83
2022/11/25 11:59:04;;;;;;;12.85;2.38;;;10.90;99.90;;;;;;6118504;23;20316;-83
2022/11/25 12:01:42;;;;;;;11.57;2.08;;;10.90;99.90;;;;;;6118181;23;20458;-83
2022/11/25 12:04:42;;;;;;;12.20;2.28;;;10.80;99.90;;;;;;6118480;23;20032;-83
2022/11/25 12:07:35;;;;;;;12.82;2.00;;;11.00;99.90;;;;;;6117918;23;20060;-83
2022/11/25 12:10:07;;;;;;;10.73;1.88;;;11.00;99.90;;;;;;6117741;23;20076;-84
2022/11/25 12:13:11;;;;;;;8.30;2.15;;;11.00;99.90;;;;;;6117047;23;20016;-83
2022/11/25 12:15:45;;;;;;;12.90;2.28;;;11.00;99.90;;;;;;6117977;23;20018;-83
2022/11/25 12:18:43;;;;;;;11.23;2.78;;;10.90;99.90;;;;;;6118350;23;20463;-83
2022/11/25 12:21:33;;;;;;;12.95;2.55;;;10.90;99.90;;;;;;6093783;23;20032;-83
2022/11/25 12:24:19;;;;;;;13.35;3.63;;;10.90;99.90;;;;;;6118252;23;20022;-83
2022/11/25 12:27:02;;;;;;;13.52;2.40;;;11.00;99.90;;;;;;6117800;23;20805;-83
2022/11/25 12:29:57;;;;;;;10.95;1.73;;;11.10;99.90;;;;;;6117360;23;20501;-83
2022/11/25 12:32:55;;;;;;;11.82;2.33;;;11.10;99.90;;;;;;6118385;23;20013;-83
2022/11/25 12:35:36;;;;;;;8.52;2.53;;;11.10;99.90;;;;;;6118295;23;20088;-83
2022/11/25 12:38:26;;;;;;;13.77;2.47;;;11.10;99.90;;;;;;6119748;23;20020;-83
2022/11/25 12:41:06;;;;;;;13.30;2.05;;;11.00;99.90;;;;;;6119689;23;20025;-83
2022/11/25 12:43:43;;;;;;;12.93;2.42;;;11.00;99.90;;;;;;6120124;23;20021;-83
2022/11/25 12:46:32;;;;;;;12.73;2.33;;;11.00;99.90;;;;;;6120154;23;20097;-83
2022/11/25 12:48:59;;;;;;;10.55;1.98;;;10.90;99.90;;;;;;6120012;23;20016;-83
2022/11/25 12:51:42;;;;;;;13.10;2.53;;;11.30;99.90;;;;;;6130801;23;20032;-83
2022/11/25 12:54:19;;;;;;;9.82;1.98;;;10.80;99.90;;;;;;6242573;23;20019;-83
2022/11/25 12:56:51;;;;;;;11.90;2.05;;;10.80;99.90;;;;;;6215254;23;20024;-83
2022/11/25 12:59:40;;;;;;;16.42;2.33;;;10.80;99.90;;;;;;6242939;23;20070;-83
2022/11/25 13:02:42;;;;;;;13.80;2.20;;;10.90;99.90;;;;;;6242669;23;20016;-83
2022/11/25 13:05:36;;;;;;;12.13;3.05;;;10.60;99.90;;;;;;6119660;23;20049;-83
2022/11/25 13:08:35;;;;;;;7.53;2.03;;;10.60;99.90;;;;;;6095348;23;20018;-83
2022/11/25 13:11:04;;;;;;;9.05;2.22;;;10.60;99.90;;;;;;6119203;23;20042;-83
2022/11/25 13:13:37;;;;;;;11.50;2.20;;;10.60;99.90;;;;;;6120190;23;20016;-83